Pelican Rapids, Canada
Current Conditions -  °F | °C
As of 7:00 PM on Monday 20 Oct 2014 (Local Time) from CYQD Reporting Station
Few Clouds Few Clouds  
Wind Chill: 37°   Ceiling: Unl
Heat Index: 45°   Visibility: 15mi
Dew Point: 39°   Wind: 18mph
Humidity: 81%   Direction: 140°SE
Pressure: 29.81"   Gusts: 25mph
Location:  52.62°N, 100.73°W
Report Text: CYQD 210000Z 14016G22KT 15SM FEW020 FEW070 07/04 A2981 RMKSF1AC1 TR SF SLP107
Loading
Personal Weather Stations






























Interactive Weather Map
Tropical Storm Tracking
New forecast layout! Learn more

10-Day Weather Forecast

Advertisements
Track Severe Weather on mobile